Time;durP1;ratioP1;P1;durP2;ratioP2;P2;SDS_P1;SDS_P2;PMS_P1;PMS_P2;Temp;Humidity;BMP_temperature;BMP_pressure;BME280_temperature;BME280_humidity;BME280_pressure;Samples;Min_cycle;Max_cycle;Signal;HPM_P1;HPM_P2
2022/01/29 00:01:38;;;;;;;17.27;7.60;;;;;;;7.11;100.00;102825.72;5049521;28;20025;-76
2022/01/29 00:04:04;;;;;;;17.40;6.90;;;;;;;7.13;100.00;102813.44;5053340;28;20025;-76
2022/01/29 00:06:29;;;;;;;19.27;7.05;;;;;;;7.13;100.00;102816.09;5054109;28;20167;-76
2022/01/29 00:08:56;;;;;;;17.75;6.97;;;;;;;7.13;100.00;102810.81;5053695;28;20497;-76
2022/01/29 00:11:27;;;;;;;17.08;6.45;;;;;;;7.11;100.00;102807.28;5053363;28;20029;-76
2022/01/29 00:13:53;;;;;;;19.27;6.80;;;;;;;7.13;100.00;102803.78;5053446;28;20029;-76
2022/01/29 00:16:18;;;;;;;22.80;6.32;;;;;;;7.12;100.00;102802.00;5053656;28;20083;-76
2022/01/29 00:18:44;;;;;;;19.92;6.10;;;;;;;7.16;100.00;102803.78;5053165;28;20021;-75
2022/01/29 00:21:09;;;;;;;17.00;6.00;;;;;;;7.23;100.00;102786.22;5053333;28;20024;-76
2022/01/29 00:23:34;;;;;;;20.13;5.93;;;;;;;7.21;100.00;102785.34;5050344;28;20024;-75
2022/01/29 00:26:00;;;;;;;24.55;6.38;;;;;;;7.26;100.00;102785.34;5033620;28;20026;-75
2022/01/29 00:28:27;;;;;;;19.27;6.03;;;;;;;7.26;100.00;102762.50;5033544;28;20021;-75
2022/01/29 00:30:52;;;;;;;20.38;5.97;;;;;;;7.29;100.00;102772.16;5033520;28;20040;-74
2022/01/29 00:33:18;;;;;;;22.83;6.30;;;;;;;7.32;100.00;102769.53;5046808;28;20025;-77
2022/01/29 00:35:43;;;;;;;14.38;5.35;;;;;;;7.37;100.00;102767.78;5052558;28;20035;-74
2022/01/29 00:38:09;;;;;;;14.07;6.10;;;;;;;7.36;100.00;102773.94;5053143;28;20025;-75
2022/01/29 00:40:36;;;;;;;22.05;6.20;;;;;;;7.41;100.00;102772.16;5053501;28;20017;-75
2022/01/29 00:43:02;;;;;;;17.45;6.63;;;;;;;7.44;100.00;102766.88;5052831;28;20116;-74
2022/01/29 00:45:28;;;;;;;20.90;6.68;;;;;;;7.45;100.00;102776.56;5052641;28;20037;-74
2022/01/29 00:47:53;;;;;;;19.35;6.13;;;;;;;7.43;100.00;102780.06;5053386;28;20480;-75
2022/01/29 00:50:18;;;;;;;15.07;6.25;;;;;;;7.38;100.00;102785.34;5052589;28;20025;-75
2022/01/29 00:52:44;;;;;;;18.67;6.70;;;;;;;7.35;100.00;102761.63;5052864;28;20021;-75
2022/01/29 00:55:10;;;;;;;17.75;6.15;;;;;;;7.35;100.00;102774.78;5052106;28;20037;-75
2022/01/29 00:57:39;;;;;;;18.02;6.18;;;;;;;7.30;100.00;102764.28;5053136;28;20056;-76
2022/01/29 01:00:06;;;;;;;20.95;6.38;;;;;;;7.25;100.00;102762.50;5053001;28;20025;-76
2022/01/29 01:02:31;;;;;;;14.50;6.10;;;;;;;7.24;100.00;102753.72;5053001;28;20017;-76
2022/01/29 01:04:57;;;;;;;16.13;6.05;;;;;;;7.21;100.00;102762.53;5052188;28;20033;-74
2022/01/29 01:07:22;;;;;;;18.42;6.03;;;;;;;7.19;100.00;102737.03;5034314;28;20025;-74
2022/01/29 01:09:47;;;;;;;15.48;6.45;;;;;;;7.16;100.00;102742.28;5034992;28;20032;-74
2022/01/29 01:12:13;;;;;;;11.57;6.00;;;;;;;7.16;100.00;102731.75;5052737;28;20013;-74
2022/01/29 01:14:38;;;;;;;13.85;6.57;;;;;;;7.12;100.00;102728.25;5052461;28;20052;-74
2022/01/29 01:17:05;;;;;;;16.13;6.18;;;;;;;7.12;100.00;102728.25;5052530;28;20036;-76
2022/01/29 01:19:30;;;;;;;15.05;6.20;;;;;;;7.10;100.00;102722.09;5052500;28;20123;-74
2022/01/29 01:21:56;;;;;;;11.63;6.30;;;;;;;7.12;100.00;102724.75;5052165;28;20159;-75
2022/01/29 01:24:23;;;;;;;15.38;6.22;;;;;;;7.13;100.00;102723.88;5052602;28;20025;-74
2022/01/29 01:26:49;;;;;;;12.45;6.95;;;;;;;7.13;100.00;102718.59;5051662;28;20031;-75
2022/01/29 01:29:14;;;;;;;18.13;7.53;;;;;;;7.14;100.00;102723.84;5052421;28;20096;-74
2022/01/29 01:31:40;;;;;;;16.27;8.20;;;;;;;7.18;100.00;102722.09;5052536;28;20033;-74
2022/01/29 01:34:07;;;;;;;20.23;8.80;;;;;;;7.16;100.00;102718.59;5052378;28;20041;-71
2022/01/29 01:36:35;;;;;;;21.25;8.48;;;;;;;7.17;100.00;102722.97;5051089;28;20477;-76
2022/01/29 01:39:06;;;;;;;19.60;8.73;;;;;;;7.18;100.00;102722.97;5052503;28;20473;-74
2022/01/29 01:41:38;;;;;;;21.30;9.38;;;;;;;7.21;100.00;102719.47;5052314;28;20465;-74
2022/01/29 01:44:04;;;;;;;23.10;10.07;;;;;;;7.22;100.00;102706.31;5052449;28;20405;-73
2022/01/29 01:46:30;;;;;;;19.55;9.73;;;;;;;7.26;100.00;102717.69;5052017;28;20037;-74
2022/01/29 01:48:56;;;;;;;19.35;10.30;;;;;;;7.27;100.00;102700.16;5051751;28;20370;-74
2022/01/29 01:51:21;;;;;;;22.73;10.15;;;;;;;7.26;100.00;102695.75;5051794;28;20057;-74
2022/01/29 01:53:48;;;;;;;26.98;10.68;;;;;;;7.27;100.00;102701.00;5051701;28;20087;-74
2022/01/29 01:56:13;;;;;;;21.48;10.65;;;;;;;7.28;100.00;102700.13;5052103;28;20049;-73
2022/01/29 01:58:39;;;;;;;28.05;10.90;;;;;;;7.28;100.00;102702.78;5051608;28;20025;-74
2022/01/29 02:01:05;;;;;;;28.92;10.82;;;;;;;7.27;100.00;102674.66;5052254;28;20025;-74
2022/01/29 02:03:30;;;;;;;23.35;11.15;;;;;;;7.32;100.00;102678.16;5052253;28;20025;-74
2022/01/29 02:05:57;;;;;;;23.35;11.35;;;;;;;7.34;100.00;102686.97;5052036;28;20480;-75
2022/01/29 02:08:23;;;;;;;21.77;10.25;;;;;;;7.33;100.00;102672.03;5051645;28;20032;-74
2022/01/29 02:10:50;;;;;;;22.88;10.75;;;;;;;7.35;100.00;102679.91;5051776;28;20033;-74
2022/01/29 02:13:15;;;;;;;27.27;10.18;;;;;;;7.36;100.00;102672.00;5052019;28;20055;-75
2022/01/29 02:15:40;;;;;;;23.77;10.07;;;;;;;7.38;100.00;102662.34;5051977;28;20053;-74
2022/01/29 02:18:13;;;;;;;23.45;10.45;;;;;;;7.41;100.00;102668.50;5051710;28;20025;-74
2022/01/29 02:20:39;;;;;;;24.63;10.63;;;;;;;7.44;100.00;102671.97;5043352;28;20032;-74
2022/01/29 02:23:04;;;;;;;21.45;9.77;;;;;;;7.45;100.00;102676.38;5052002;28;20021;-74
2022/01/29 02:25:44;;;;;;;18.88;9.00;;;;;;;7.44;100.00;102666.72;5051248;28;20130;-75
2022/01/29 02:28:11;;;;;;;22.25;9.55;;;;;;;7.44;100.00;102650.91;5051868;28;20481;-75
2022/01/29 02:30:39;;;;;;;22.35;8.88;;;;;;;7.50;100.00;102657.94;5050938;28;20441;-75
2022/01/29 02:33:08;;;;;;;16.92;7.88;;;;;;;7.54;100.00;102646.50;5051679;28;20025;-74
2022/01/29 02:35:40;;;;;;;18.88;8.48;;;;;;;7.53;100.00;102635.06;5051654;28;20033;-76
2022/01/29 02:38:05;;;;;;;22.75;8.45;;;;;;;7.54;100.00;102628.94;5051874;28;20123;-75
2022/01/29 02:40:35;;;;;;;18.40;9.00;;;;;;;7.56;100.00;102626.28;5051332;28;20108;-75
2022/01/29 02:43:16;;;;;;;24.08;8.52;;;;;;;7.56;100.00;102615.75;5051747;28;20032;-74
2022/01/29 02:45:42;;;;;;;21.17;8.32;;;;;;;7.59;100.00;102622.75;5051764;28;20044;-74
2022/01/29 02:48:08;;;;;;;20.55;8.73;;;;;;;7.58;100.00;102621.84;5054320;28;20024;-74
2022/01/29 02:50:34;;;;;;;25.52;8.32;;;;;;;7.61;100.00;102620.97;5054990;28;20491;-74
2022/01/29 02:52:59;;;;;;;26.35;7.68;;;;;;;7.62;100.00;102607.81;5054848;28;20033;-75
2022/01/29 02:55:25;;;;;;;19.50;7.60;;;;;;;7.63;100.00;102603.41;5054786;28;20112;-75
2022/01/29 02:57:50;;;;;;;21.33;7.55;;;;;;;7.65;100.00;102604.28;5036532;28;20480;-75
2022/01/29 03:00:16;;;;;;;19.70;8.10;;;;;;;7.67;100.00;102602.50;5034958;28;20017;-75
2022/01/29 03:02:41;;;;;;;19.50;7.47;;;;;;;7.66;100.00;102596.34;5052038;28;20495;-75
2022/01/29 03:05:07;;;;;;;18.45;6.75;;;;;;;7.68;100.00;102585.78;5039104;28;20029;-74
2022/01/29 03:07:32;;;;;;;22.15;7.93;;;;;;;7.69;100.00;102598.97;5035139;28;20029;-75
2022/01/29 03:09:58;;;;;;;16.33;7.25;;;;;;;7.71;100.00;102584.03;5034861;28;20018;-75
2022/01/29 03:12:23;;;;;;;19.27;7.57;;;;;;;7.70;100.00;102595.44;5043893;28;20063;-73
2022/01/29 03:14:48;;;;;;;20.95;7.10;;;;;;;7.73;100.00;102575.25;5052868;28;20499;-75
2022/01/29 03:17:14;;;;;;;15.95;6.45;;;;;;;7.77;100.00;102579.59;5046242;28;20059;-75
2022/01/29 03:19:39;;;;;;;18.52;6.35;;;;;;;7.75;100.00;102582.25;5035069;28;20500;-75
2022/01/29 03:22:04;;;;;;;18.67;7.15;;;;;;;7.78;100.00;102576.94;5036599;28;20034;-75
2022/01/29 03:24:30;;;;;;;22.15;6.80;;;;;;;7.78;100.00;102587.50;5054110;28;20100;-75
2022/01/29 03:26:55;;;;;;;23.83;7.10;;;;;;;7.78;100.00;102557.63;5054585;28;20033;-76
2022/01/29 03:29:20;;;;;;;20.45;7.05;;;;;;;7.81;100.00;102578.69;5053348;28;20107;-74
2022/01/29 03:31:45;;;;;;;24.58;6.93;;;;;;;7.84;100.00;102563.75;5054671;28;20032;-76
2022/01/29 03:34:11;;;;;;;14.35;6.18;;;;;;;7.86;100.00;102554.06;5053882;28;20496;-77
2022/01/29 03:36:36;;;;;;;14.05;6.70;;;;;;;7.87;100.00;102573.41;5054475;28;20037;-77
2022/01/29 03:39:02;;;;;;;18.95;7.00;;;;;;;7.86;100.00;102550.53;5054410;28;20056;-75
2022/01/29 03:41:29;;;;;;;21.77;6.20;;;;;;;7.88;100.00;102559.31;5054140;28;20104;-77
2022/01/29 03:43:57;;;;;;;18.83;6.85;;;;;;;7.90;100.00;102548.75;5053714;28;20079;-75
2022/01/29 03:46:22;;;;;;;25.52;6.78;;;;;;;7.88;100.00;102560.19;5054388;28;20029;-74
2022/01/29 03:48:48;;;;;;;14.95;5.60;;;;;;;7.88;100.00;102554.91;5042962;28;20029;-75
2022/01/29 03:51:13;;;;;;;18.67;6.18;;;;;;;7.92;100.00;102563.69;5034503;28;20025;-75
2022/01/29 03:53:38;;;;;;;16.35;6.35;;;;;;;7.95;100.00;102555.75;5034385;28;20050;-76
2022/01/29 03:56:04;;;;;;;14.32;5.55;;;;;;;7.98;100.00;102542.56;5057108;28;20076;-74
2022/01/29 03:58:29;;;;;;;21.52;6.38;;;;;;;8.00;100.00;102537.25;5054060;28;20052;-75
2022/01/29 04:00:54;;;;;;;13.70;6.60;;;;;;;8.02;100.00;102551.31;5054029;28;20381;-76
2022/01/29 04:03:20;;;;;;;17.23;5.93;;;;;;;8.07;100.00;102525.78;5053969;28;20021;-76
2022/01/29 04:05:45;;;;;;;17.55;5.60;;;;;;;8.10;100.00;102536.31;5053717;28;20112;-76
2022/01/29 04:08:16;;;;;;;14.23;6.00;;;;;;;8.09;100.00;102531.91;5053930;28;20025;-76
2022/01/29 04:10:42;;;;;;;17.90;6.18;;;;;;;8.08;100.00;102534.56;5053888;28;20029;-77
2022/01/29 04:13:10;;;;;;;18.88;5.95;;;;;;;8.06;100.00;102529.31;5053725;28;20473;-74
2022/01/29 04:15:36;;;;;;;14.35;6.53;;;;;;;8.06;100.00;102542.50;5053090;28;20043;-74
2022/01/29 04:18:03;;;;;;;19.83;6.43;;;;;;;8.04;100.00;102541.63;5053711;28;20469;-74
2022/01/29 04:20:28;;;;;;;17.25;5.43;;;;;;;8.06;100.00;102533.69;5053841;28;20025;-75
2022/01/29 04:22:53;;;;;;;15.32;5.90;;;;;;;8.06;100.00;102542.50;5053609;28;20028;-76
2022/01/29 04:25:19;;;;;;;20.85;6.55;;;;;;;8.07;100.00;102535.44;5053163;28;20489;-74
2022/01/29 04:27:46;;;;;;;15.32;5.78;;;;;;;8.04;100.00;102536.34;5052815;28;20381;-76
2022/01/29 04:30:43;;;;;;;17.30;5.78;;;;;;;8.06;100.00;102525.78;5053457;28;20083;-75
2022/01/29 04:33:03;;;;;;;13.88;5.70;;;;;;;8.10;100.00;102511.69;5052703;28;20811;-75
2022/01/29 04:35:30;;;;;;;17.70;6.20;;;;;;;8.09;100.00;102499.38;5053209;28;20035;-75
2022/01/29 04:37:56;;;;;;;13.57;5.40;;;;;;;8.11;100.00;102503.75;5052889;28;20068;-76
2022/01/29 04:40:22;;;;;;;24.00;5.68;;;;;;;8.13;100.00;102511.66;5053371;28;20041;-75
2022/01/29 04:42:47;;;;;;;14.73;5.53;;;;;;;8.11;100.00;102509.03;5053063;28;20029;-76
2022/01/29 04:45:13;;;;;;;19.75;6.38;;;;;;;8.03;100.00;102488.00;5053162;28;20041;-76
2022/01/29 04:47:38;;;;;;;14.75;5.95;;;;;;;8.02;100.00;102495.94;5052488;28;20469;-76
2022/01/29 04:50:05;;;;;;;14.82;5.28;;;;;;;8.01;100.00;102491.53;5053080;28;20063;-76
2022/01/29 04:52:30;;;;;;;15.90;5.03;;;;;;;7.97;100.00;102485.41;5052825;28;20029;-76
2022/01/29 04:54:55;;;;;;;14.00;5.80;;;;;;;7.95;100.00;102492.44;5052775;28;20080;-76
2022/01/29 04:57:21;;;;;;;14.55;5.20;;;;;;;7.99;100.00;102486.28;5052432;28;20032;-76
2022/01/29 04:59:46;;;;;;;14.45;5.80;;;;;;;7.98;100.00;102486.25;5052257;28;20033;-75
2022/01/29 05:02:11;;;;;;;14.95;5.60;;;;;;;8.00;100.00;102482.72;5053150;28;20432;-75
2022/01/29 05:04:37;;;;;;;13.35;5.20;;;;;;;8.03;100.00;102490.63;5052914;28;20576;-75
2022/01/29 05:07:02;;;;;;;17.60;5.88;;;;;;;8.04;100.00;102475.66;5052618;28;20029;-74
2022/01/29 05:09:28;;;;;;;19.40;5.80;;;;;;;8.08;100.00;102495.88;5051855;28;20111;-75
2022/01/29 05:11:54;;;;;;;14.73;5.68;;;;;;;8.07;100.00;102477.41;5052856;28;20060;-75
2022/01/29 05:14:39;;;;;;;19.17;5.72;;;;;;;8.07;100.00;102494.13;5052924;28;20025;-75
2022/01/29 05:27:59;;;;;;;12.48;5.18;;;;;;;8.06;100.00;102486.19;5052196;28;20064;-75
2022/01/29 05:30:25;;;;;;;15.70;5.28;;;;;;;8.08;100.00;102481.81;5052133;28;20088;-75
2022/01/29 05:32:50;;;;;;;17.30;5.53;;;;;;;8.08;100.00;102485.34;5052551;28;20025;-74
2022/01/29 05:35:15;;;;;;;15.90;5.10;;;;;;;8.10;100.00;102480.91;5055027;28;20041;-76
2022/01/29 05:37:41;;;;;;;15.32;5.20;;;;;;;8.10;100.00;102493.22;5052615;28;20145;-75
2022/01/29 05:40:07;;;;;;;14.07;5.25;;;;;;;8.12;100.00;102481.78;5051990;28;20033;-76
2022/01/29 05:42:32;;;;;;;11.25;5.15;;;;;;;8.14;100.00;102487.91;5051942;28;20040;-75
2022/01/29 05:44:57;;;;;;;17.90;5.90;;;;;;;8.16;100.00;102490.53;5052132;28;20384;-74
2022/01/29 05:47:23;;;;;;;17.90;5.55;;;;;;;8.17;100.00;102492.28;5052857;28;20119;-74
2022/01/29 05:49:48;;;;;;;17.00;5.40;;;;;;;8.17;100.00;102495.81;5051979;28;20029;-74
2022/01/29 05:52:13;;;;;;;14.35;4.80;;;;;;;8.18;100.00;102480.84;5051825;28;20028;-75
2022/01/29 05:54:39;;;;;;;18.63;5.45;;;;;;;8.20;100.00;102487.00;5051894;28;20501;-75
2022/01/29 05:57:04;;;;;;;16.48;5.07;;;;;;;8.17;100.00;102481.72;5052227;28;20084;-75
2022/01/29 05:59:34;;;;;;;11.32;5.07;;;;;;;8.21;100.00;102480.81;5051745;28;20025;-74
2022/01/29 06:02:00;;;;;;;16.80;4.95;;;;;;;8.23;100.00;102473.75;5035501;28;20082;-73
2022/01/29 06:04:25;;;;;;;13.15;4.35;;;;;;;8.25;100.00;102479.00;5051612;28;20021;-75
2022/01/29 06:06:50;;;;;;;10.80;4.28;;;;;;;8.26;100.00;102476.38;5052399;28;20033;-75
2022/01/29 06:09:16;;;;;;;12.80;4.35;;;;;;;8.30;100.00;102464.91;5052081;28;20017;-75
2022/01/29 06:11:41;;;;;;;15.93;4.40;;;;;;;8.31;100.00;102476.31;5051744;28;20420;-76
2022/01/29 06:14:06;;;;;;;14.35;4.55;;;;;;;8.29;100.00;102428.84;5051624;28;20057;-73
2022/01/29 06:16:31;;;;;;;17.45;5.43;;;;;;;8.33;100.00;102467.50;5051419;28;20457;-75
2022/01/29 06:18:57;;;;;;;12.80;4.60;;;;;;;8.34;100.00;102463.97;5035405;28;20029;-75
2022/01/29 06:21:22;;;;;;;12.45;4.82;;;;;;;8.35;100.00;102456.91;5038345;28;20051;-74
2022/01/29 06:23:48;;;;;;;14.15;4.68;;;;;;;8.36;100.00;102448.13;5042988;28;20040;-75
2022/01/29 06:26:13;;;;;;;18.90;4.70;;;;;;;8.35;100.00;102436.69;5055706;28;20025;-75
2022/01/29 06:28:39;;;;;;;11.77;4.60;;;;;;;8.39;100.00;102424.34;5055836;28;20021;-74
2022/01/29 06:31:06;;;;;;;15.07;4.53;;;;;;;8.41;100.00;102426.97;5054961;28;20043;-75
2022/01/29 06:33:32;;;;;;;18.15;4.97;;;;;;;8.42;100.00;102434.00;5055588;28;20048;-73
2022/01/29 06:35:57;;;;;;;10.32;3.80;;;;;;;8.40;100.00;102439.31;5055303;28;20040;-74
2022/01/29 06:38:23;;;;;;;19.38;4.32;;;;;;;8.43;100.00;102438.41;5055673;28;20033;-76
2022/01/29 06:40:49;;;;;;;18.67;4.22;;;;;;;8.42;100.00;102437.50;5055300;28;20096;-73
2022/01/29 06:43:14;;;;;;;10.57;3.97;;;;;;;8.43;100.00;102448.94;5055260;28;20036;-76
2022/01/29 06:45:41;;;;;;;17.35;4.20;;;;;;;8.43;100.00;102435.75;5054965;28;20524;-74
2022/01/29 06:48:07;;;;;;;16.77;4.20;;;;;;;8.46;100.00;102430.47;5055173;28;20472;-74
2022/01/29 06:50:33;;;;;;;14.80;3.72;;;;;;;8.45;100.00;102426.94;5055659;28;20120;-74
2022/01/29 06:52:59;;;;;;;11.20;3.70;;;;;;;8.47;100.00;102432.22;5055061;28;20457;-76
2022/01/29 06:55:25;;;;;;;11.57;3.70;;;;;;;8.49;100.00;102420.75;5054560;28;20131;-75
2022/01/29 06:57:50;;;;;;;15.75;4.60;;;;;;;8.49;100.00;102420.75;5054850;28;20128;-75
2022/01/29 07:00:16;;;;;;;13.45;3.78;;;;;;;8.52;100.00;102425.13;5055115;28;20025;-76
2022/01/29 07:02:42;;;;;;;16.13;5.40;;;;;;;8.52;100.00;102419.84;5054588;28;20043;-75
2022/01/29 07:05:09;;;;;;;15.45;3.78;;;;;;;8.49;100.00;102411.94;5055084;28;20033;-75
2022/01/29 07:07:35;;;;;;;11.57;3.63;;;;;;;8.52;100.00;102420.72;5054695;28;20095;-75
2022/01/29 07:10:00;;;;;;;15.88;3.50;;;;;;;8.54;100.00;102415.41;5054675;28;20469;-72
2022/01/29 07:12:26;;;;;;;10.40;3.60;;;;;;;8.55;100.00;102397.81;5036281;28;20084;-76
2022/01/29 07:14:51;;;;;;;11.18;3.80;;;;;;;8.54;100.00;102407.47;5043966;28;20385;-76
2022/01/29 07:17:18;;;;;;;14.98;3.95;;;;;;;8.52;100.00;102415.44;5044137;28;20037;-77
2022/01/29 07:19:44;;;;;;;14.05;3.70;;;;;;;8.54;100.00;102420.69;5039591;28;20187;-77
2022/01/29 07:22:11;;;;;;;13.82;4.25;;;;;;;8.51;100.00;102411.03;5049421;28;20025;-77
2022/01/29 07:24:37;;;;;;;13.77;3.40;;;;;;;8.50;100.00;102400.50;5054001;28;20025;-77
2022/01/29 07:27:03;;;;;;;18.67;3.75;;;;;;;8.51;100.00;102412.81;5054827;28;20024;-76
2022/01/29 07:29:29;;;;;;;14.20;3.50;;;;;;;8.52;100.00;102410.16;5054787;28;20024;-77
2022/01/29 07:31:56;;;;;;;13.75;3.47;;;;;;;8.55;100.00;102398.69;5053952;28;20444;-76
2022/01/29 07:34:22;;;;;;;13.38;3.40;;;;;;;8.54;100.00;102394.28;5037857;28;20025;-76
2022/01/29 07:36:47;;;;;;;12.65;3.70;;;;;;;8.54;100.00;102396.91;5054206;28;20099;-76
2022/01/29 07:39:13;;;;;;;15.73;3.53;;;;;;;8.59;100.00;102389.81;5054104;28;20032;-76
2022/01/29 07:41:38;;;;;;;12.45;2.92;;;;;;;8.66;100.00;102391.50;5053053;28;20033;-75
2022/01/29 07:44:04;;;;;;;11.52;3.10;;;;;;;8.71;100.00;102398.50;5054333;28;20519;-74
2022/01/29 07:46:29;;;;;;;15.73;3.63;;;;;;;8.71;100.00;102390.56;5054502;28;20033;-77
2022/01/29 07:48:54;;;;;;;8.98;3.08;;;;;;;8.73;100.00;102378.22;5052040;28;20070;-76
2022/01/29 07:51:20;;;;;;;11.60;3.03;;;;;;;8.75;100.00;102364.13;5047701;28;20208;-75
2022/01/29 07:53:45;;;;;;;13.32;2.78;;;;;;;8.81;100.00;102377.25;5044218;28;20401;-74
2022/01/29 07:56:10;;;;;;;13.70;3.00;;;;;;;8.85;100.00;102376.31;5053875;28;20052;-75
2022/01/29 07:58:36;;;;;;;16.75;3.17;;;;;;;8.90;100.00;102372.72;5053519;28;20025;-77
2022/01/29 08:01:02;;;;;;;15.48;3.05;;;;;;;8.91;100.00;102371.84;5054411;28;20036;-76
2022/01/29 08:03:28;;;;;;;12.23;3.20;;;;;;;8.90;100.00;102368.34;5046088;28;20024;-76
2022/01/29 08:05:53;;;;;;;9.30;2.70;;;;;;;8.91;100.00;102361.25;5054137;28;20077;-74
2022/01/29 08:08:19;;;;;;;11.20;3.33;;;;;;;8.95;100.00;102362.97;5049706;28;20024;-75
2022/01/29 08:10:44;;;;;;;15.30;3.00;;;;;;;8.96;100.00;102351.50;5052918;28;20035;-75
2022/01/29 08:13:09;;;;;;;11.27;2.90;;;;;;;9.00;100.00;102361.13;5053436;28;21531;-76
2022/01/29 08:15:34;;;;;;;12.48;3.03;;;;;;;9.02;100.00;102354.94;5034149;28;20025;-77
2022/01/29 08:18:00;;;;;;;8.57;2.97;;;;;;;9.07;100.00;102341.66;5033266;28;20149;-76
2022/01/29 08:20:26;;;;;;;11.10;2.60;;;;;;;9.05;100.00;102354.00;5044270;28;20104;-76
2022/01/29 08:22:51;;;;;;;12.95;2.80;;;;;;;9.09;100.00;102352.22;5053460;28;20028;-75
2022/01/29 08:25:17;;;;;;;11.18;2.72;;;;;;;9.12;100.00;102360.13;5053944;28;20405;-75
2022/01/29 08:27:42;;;;;;;9.75;2.63;;;;;;;9.08;100.00;102359.28;5053591;28;20028;-76
2022/01/29 08:30:08;;;;;;;8.75;2.60;;;;;;;9.10;100.00;102356.59;5053291;28;20443;-74
2022/01/29 08:32:40;;;;;;;10.25;2.80;;;;;;;9.10;100.00;102361.88;5053402;28;20028;-75
2022/01/29 08:35:06;;;;;;;14.30;2.88;;;;;;;9.09;100.00;102350.47;5052339;28;20495;-74
2022/01/29 08:37:31;;;;;;;10.77;2.92;;;;;;;9.09;100.00;102349.56;5053344;28;20030;-73
2022/01/29 08:39:56;;;;;;;10.77;3.03;;;;;;;9.09;100.00;102345.16;5053093;28;20531;-74
2022/01/29 08:42:22;;;;;;;5.55;2.30;;;;;;;9.13;100.00;102333.66;5053055;28;20107;-74
2022/01/29 08:44:47;;;;;;;12.73;2.72;;;;;;;9.15;100.00;102344.19;5047137;28;20082;-74
2022/01/29 08:47:12;;;;;;;10.20;2.50;;;;;;;9.15;100.00;102326.56;5052860;28;20473;-74
2022/01/29 08:49:39;;;;;;;14.02;2.80;;;;;;;9.13;100.00;102332.75;5052629;28;20040;-76
2022/01/29 08:52:04;;;;;;;9.98;2.53;;;;;;;9.08;100.00;102327.56;5035307;28;20431;-75
2022/01/29 08:54:30;;;;;;;12.95;2.75;;;;;;;9.10;100.00;102338.09;5053295;28;20041;-76
2022/01/29 08:56:55;;;;;;;13.80;2.90;;;;;;;9.09;100.00;102339.00;5052818;28;20387;-74
2022/01/29 08:59:20;;;;;;;13.52;2.65;;;;;;;9.06;100.00;102302.91;5052748;28;20056;-74
2022/01/29 09:01:46;;;;;;;11.25;2.83;;;;;;;9.02;100.00;102307.38;5052328;28;20071;-74
2022/01/29 09:04:11;;;;;;;8.90;2.95;;;;;;;9.02;100.00;102323.22;5052590;28;20048;-74
2022/01/29 09:06:36;;;;;;;13.60;2.70;;;;;;;8.98;100.00;102312.75;5052933;28;20025;-76
2022/01/29 09:09:02;;;;;;;8.63;3.30;;;;;;;8.97;100.00;102317.13;5052690;28;20385;-76
2022/01/29 09:11:28;;;;;;;16.30;3.22;;;;;;;8.98;100.00;102304.81;5052675;28;20481;-76
2022/01/29 09:13:53;;;;;;;11.45;2.90;;;;;;;9.09;100.00;102315.22;5052680;28;20125;-77
2022/01/29 09:16:18;;;;;;;16.70;3.33;;;;;;;9.10;100.00;102306.41;5043544;28;20033;-76
2022/01/29 09:18:44;;;;;;;13.18;3.10;;;;;;;9.21;100.00;102316.78;5047448;28;20052;-74
2022/01/29 09:21:09;;;;;;;16.95;3.10;;;;;;;9.24;100.00;102308.81;5052062;28;20029;-75
2022/01/29 09:23:36;;;;;;;16.77;3.53;;;;;;;9.29;100.00;102317.56;5047229;28;20021;-75
2022/01/29 09:26:01;;;;;;;10.95;2.65;;;;;;;9.30;100.00;102311.38;5046357;28;20040;-74
2022/01/29 09:28:27;;;;;;;16.45;2.90;;;;;;;9.38;100.00;102312.13;5049804;28;20035;-74
2022/01/29 09:30:52;;;;;;;16.08;2.78;;;;;;;9.45;99.76;102310.22;5051029;28;20028;-73
2022/01/29 09:33:18;;;;;;;16.42;3.55;;;;;;;9.44;99.94;102295.28;5051572;28;20434;-77
2022/01/29 09:35:43;;;;;;;18.67;3.25;;;;;;;9.54;99.42;102296.00;5052622;28;20071;-77
2022/01/29 09:38:10;;;;;;;14.75;3.13;;;;;;;9.88;97.96;102288.31;5052681;28;20461;-78
2022/01/29 09:40:36;;;;;;;12.95;2.67;;;;;;;10.47;95.00;102276.59;5051969;28;20017;-77
2022/01/29 09:43:05;;;;;;;8.75;2.60;;;;;;;11.06;91.85;102285.91;5046922;28;20025;-78
2022/01/29 09:45:32;;;;;;;12.85;2.30;;;;;;;11.46;88.59;102279.63;5021265;28;20034;-77
2022/01/29 09:48:03;;;;;;;14.88;2.88;;;;;;;12.00;85.78;102267.59;5032048;28;20087;-77
2022/01/29 09:50:31;;;;;;;13.20;3.08;;;;;;;12.02;85.45;102254.28;5032802;28;20033;-77
2022/01/29 09:52:58;;;;;;;13.25;2.63;;;;;;;12.29;84.22;102265.91;5046347;28;20143;-77
2022/01/29 09:55:24;;;;;;;12.15;2.80;;;;;;;12.65;81.03;102263.06;5051647;28;20041;-76
2022/01/29 09:57:49;;;;;;;13.43;2.90;;;;;;;12.60;81.54;102244.59;5055686;28;20033;-76
2022/01/29 10:00:15;;;;;;;15.40;2.70;;;;;;;12.37;82.98;102241.78;5055016;28;20157;-76
2022/01/29 10:02:41;;;;;;;11.10;2.45;;;;;;;12.72;81.96;102269.91;5052699;28;20949;-74
2022/01/29 10:05:08;;;;;;;9.93;2.22;;;;;;;13.16;79.10;102250.81;5055709;28;20031;-76
2022/01/29 10:07:34;;;;;;;14.43;2.30;;;;;;;12.26;81.45;102260.69;5055698;28;20017;-76
2022/01/29 10:10:01;;;;;;;10.85;2.60;;;;;;;11.66;84.46;102260.53;5050835;28;20030;-77
2022/01/29 10:12:29;;;;;;;10.75;2.85;;;;;;;12.00;84.70;102278.22;5040049;28;20025;-76
2022/01/29 10:14:57;;;;;;;12.57;2.53;;;;;;;12.99;81.32;102258.47;5055437;28;20029;-75
2022/01/29 10:17:39;;;;;;;10.05;2.45;;;;;;;13.64;76.40;102267.84;5056035;28;20021;-76
2022/01/29 10:20:11;;;;;;;8.65;2.20;;;;;;;13.70;74.76;102272.09;5055352;28;20033;-76
2022/01/29 10:22:36;;;;;;;11.35;2.70;;;;;;;12.66;79.48;102272.78;5055408;28;20059;-75
2022/01/29 10:25:14;;;;;;;12.13;2.72;;;;;;;11.86;82.95;102264.44;5052560;28;20029;-76
2022/01/29 10:28:09;;;;;;;10.75;2.17;;;;;;;12.41;81.36;102248.72;5054879;28;20025;-75
2022/01/29 10:30:47;;;;;;;13.38;2.40;;;;;;;12.02;83.02;102271.09;5055387;28;20041;-76
2022/01/29 10:33:24;;;;;;;8.90;2.53;;;;;;;12.30;81.29;102257.00;5054982;28;20061;-74
2022/01/29 10:35:52;;;;;;;16.73;3.17;;;;;;;12.43;79.97;102239.81;5122573;23;20072;-76
2022/01/29 10:38:20;;;;;;;9.27;2.00;;;;;;;11.98;82.03;102252.63;5074612;28;20036;-78
2022/01/29 10:40:47;;;;;;;13.55;2.20;;;;;;;11.44;85.53;102225.72;5075548;28;20391;-77
2022/01/29 10:43:12;;;;;;;7.15;1.98;;;;;;;11.64;84.83;102241.13;5074877;28;20032;-77
2022/01/29 10:45:37;;;;;;;12.93;2.50;;;;;;;11.78;85.06;102251.38;5075192;28;20407;-75
2022/01/29 10:48:05;;;;;;;10.23;2.53;;;;;;;11.96;82.96;102191.63;5074477;28;20028;-75
2022/01/29 10:50:31;;;;;;;9.27;2.28;;;;;;;11.59;85.45;102254.50;5075394;28;20031;-77
2022/01/29 10:52:58;;;;;;;11.05;2.17;;;;;;;11.55;85.79;102262.63;5074755;28;20447;-77
2022/01/29 10:55:24;;;;;;;8.95;2.50;;;;;;;11.19;87.01;102231.69;5074394;28;20025;-75
2022/01/29 10:57:49;;;;;;;10.65;2.45;;;;;;;10.94;87.74;102228.75;5074809;28;20024;-76
2022/01/29 11:00:22;;;;;;;7.10;2.15;;;;;;;10.67;89.55;102225.84;5073439;28;20574;-75
2022/01/29 11:02:49;;;;;;;9.23;2.00;;;;;;;10.62;90.50;102217.13;5072309;28;20094;-76
2022/01/29 11:05:15;;;;;;;6.95;2.35;;;;;;;10.48;90.70;102190.97;5072910;28;20048;-76
2022/01/29 11:07:51;;;;;;;9.60;2.63;;;;;;;10.32;91.54;102193.91;5073083;28;20049;-76
2022/01/29 11:10:18;;;;;;;9.73;2.60;;;;;;;10.29;92.57;102196.66;5054576;28;20488;-75
2022/01/29 11:12:46;;;;;;;10.82;2.85;;;;;;;10.25;92.33;102207.31;5071027;28;20032;-76
2022/01/29 11:15:14;;;;;;;12.55;2.40;;;;;;;10.22;92.80;102207.38;5075241;28;20081;-77
2022/01/29 11:17:40;;;;;;;13.70;2.38;;;;;;;10.15;92.87;102191.66;5073926;28;20024;-77
2022/01/29 11:20:06;;;;;;;11.40;2.83;;;;;;;10.33;92.81;102192.13;5074220;28;20119;-77
2022/01/29 11:22:41;;;;;;;8.65;2.33;;;;;;;10.39;92.51;102183.22;5074682;28;20388;-77
2022/01/29 11:25:07;;;;;;;13.48;2.45;;;;;;;10.46;91.81;102196.28;5074183;28;20036;-77